Time;durP1;ratioP1;P1;durP2;ratioP2;P2;SDS_P1;SDS_P2;PMS_P1;PMS_P2;Temp;Humidity;BMP_temperature;BMP_pressure;BME280_temperature;BME280_humidity;BME280_pressure;Samples;Min_cycle;Max_cycle;Signal;HPM_P1;HPM_P2
2022/08/15 00:00:35;;;;;;;15.15;9.30;;;;;;;16.70;85.44;92788.47;4973955;28;20027;-43
2022/08/15 00:03:02;;;;;;;13.60;9.05;;;;;;;16.77;85.01;92792.34;4973674;28;20038;-43
2022/08/15 00:05:33;;;;;;;15.43;8.85;;;;;;;16.77;84.85;92789.56;4972886;28;20045;-44
2022/08/15 00:07:59;;;;;;;12.05;8.52;;;;;;;16.81;84.57;92798.88;4973176;28;20022;-45
2022/08/15 00:10:25;;;;;;;15.05;9.68;;;;;;;16.84;84.16;92797.69;4973188;28;20029;-44
2022/08/15 00:12:50;;;;;;;13.50;9.02;;;;;;;16.88;83.62;92791.63;4973134;28;20125;-45
2022/08/15 00:15:18;;;;;;;13.65;9.13;;;;;;;16.83;83.94;92801.09;4973194;28;20031;-43
2022/08/15 00:17:46;;;;;;;13.23;9.13;;;;;;;16.74;84.20;92785.22;4973020;28;20050;-47
2022/08/15 00:20:12;;;;;;;13.63;8.75;;;;;;;16.85;83.80;92792.84;4973036;28;20023;-44
2022/08/15 00:22:48;;;;;;;17.48;9.70;;;;;;;16.77;84.23;92790.28;4971076;28;20070;-47
2022/08/15 00:25:14;;;;;;;13.18;8.90;;;;;;;16.78;83.65;92785.44;4971568;28;20065;-44
2022/08/15 00:27:40;;;;;;;12.57;8.77;;;;;;;16.89;83.51;92799.38;4973386;28;20473;-47
2022/08/15 00:30:08;;;;;;;11.55;8.98;;;;;;;16.89;83.26;92798.66;4973368;28;20121;-46
2022/08/15 00:32:34;;;;;;;13.63;9.88;;;;;;;16.83;83.57;92796.22;4972500;28;20015;-46
2022/08/15 00:35:00;;;;;;;12.77;9.02;;;;;;;16.84;83.84;92803.28;4970436;28;20436;-43
2022/08/15 00:37:26;;;;;;;11.88;8.10;;;;;;;16.88;83.56;92803.50;4972395;28;20497;-46
2022/08/15 00:39:52;;;;;;;10.82;8.57;;;;;;;16.81;83.00;92793.31;4972766;28;20102;-45
2022/08/15 00:42:23;;;;;;;15.80;9.35;;;;;;;16.88;82.51;92802.78;4972569;28;20111;-43
2022/08/15 00:44:49;;;;;;;17.20;9.18;;;;;;;16.73;82.59;92804.00;4974362;28;20415;-45
2022/08/15 00:47:17;;;;;;;30.42;28.05;;;;;;;16.82;81.77;92805.19;4972613;28;20029;-46
2022/08/15 00:49:43;;;;;;;20.63;18.90;;;;;;;16.85;80.81;92798.44;4972729;28;20050;-44
2022/08/15 00:52:34;;;;;;;31.20;29.35;;;;;;;16.85;80.40;92798.44;4972625;28;20105;-42
2022/08/15 00:55:05;;;;;;;18.83;17.15;;;;;;;16.82;80.88;92805.19;4967741;28;20117;-43
2022/08/15 00:57:37;;;;;;;12.07;7.30;;;;;;;16.80;81.40;92807.88;4971038;28;20511;-44
2022/08/15 01:00:19;;;;;;;11.60;7.18;;;;;;;16.59;81.53;92798.25;4970001;28;20022;-44
2022/08/15 01:02:45;;;;;;;23.58;21.83;;;;;;;16.63;82.05;92801.31;4971474;28;20101;-43
2022/08/15 01:05:13;;;;;;;11.35;8.00;;;;;;;16.67;81.65;92804.31;4970713;28;20035;-44
2022/08/15 01:07:41;;;;;;;11.45;7.05;;;;;;;16.63;81.68;92815.22;4972327;28;20022;-44
2022/08/15 01:10:08;;;;;;;9.30;7.13;;;;;;;16.62;81.18;92807.47;4974879;28;20168;-45
2022/08/15 01:12:36;;;;;;;9.23;6.80;;;;;;;16.59;81.00;92812.19;4968319;28;20394;-44
2022/08/15 01:15:05;;;;;;;14.88;13.55;;;;;;;16.56;80.98;92804.34;4970773;28;20026;-42
2022/08/15 01:17:31;;;;;;;9.90;7.22;;;;;;;16.59;81.16;92811.47;4973056;28;20054;-45
2022/08/15 01:20:12;;;;;;;12.32;6.70;;;;;;;16.41;82.37;92815.91;4971940;28;20428;-41
2022/08/15 01:23:06;;;;;;;11.68;6.78;;;;;;;16.41;81.51;92799.94;4970566;28;20035;-42
2022/08/15 01:25:45;;;;;;;9.05;6.47;;;;;;;16.34;81.31;92809.22;4970993;28;20026;-42
2022/08/15 01:28:20;;;;;;;12.23;7.35;;;;;;;16.41;81.10;92805.50;4971004;28;20026;-43
2022/08/15 01:30:50;;;;;;;7.70;5.65;;;;;;;16.40;80.95;92809.59;4970314;28;20523;-42
2022/08/15 01:33:16;;;;;;;11.02;7.28;;;;;;;16.25;81.66;92798.91;4971018;28;20031;-42
2022/08/15 01:35:42;;;;;;;9.55;6.80;;;;;;;16.22;81.97;92785.47;4971898;28;20411;-42
2022/08/15 01:38:39;;;;;;;6.78;6.03;;;;;;;16.29;82.39;92795.63;4952192;28;20547;-43
2022/08/15 01:41:32;;;;;;;7.85;6.13;;;;;;;16.36;82.09;92803.03;4951757;29;20118;-41
2022/08/15 01:44:16;;;;;;;9.20;5.57;;;;;;;16.28;82.27;92799.75;4950767;29;20043;-44
2022/08/15 01:46:50;;;;;;;9.48;5.93;;;;;;;16.38;81.49;92800.38;4952489;28;20027;-40
2022/08/15 01:49:22;;;;;;;7.20;5.80;;;;;;;16.19;82.13;92801.31;4967845;28;20046;-44
2022/08/15 01:51:48;;;;;;;8.85;6.40;;;;;;;16.01;82.38;92777.88;4967550;28;20106;-44
2022/08/15 01:54:14;;;;;;;6.88;5.53;;;;;;;16.13;82.41;92794.63;4968783;28;20096;-42
2022/08/15 01:56:42;;;;;;;8.15;6.78;;;;;;;16.23;81.00;92787.63;4972099;28;20105;-43
2022/08/15 01:59:12;;;;;;;10.77;6.93;;;;;;;16.16;81.47;92787.84;4971698;28;20034;-42
2022/08/15 02:01:50;;;;;;;8.35;6.20;;;;;;;16.12;81.53;92795.94;4972049;28;20026;-42
2022/08/15 02:04:18;;;;;;;6.97;6.17;;;;;;;16.18;81.41;92793.53;4971651;28;20050;-46
2022/08/15 02:06:45;;;;;;;8.68;5.70;;;;;;;16.10;81.30;92779.84;4971552;28;20057;-46
2022/08/15 02:09:16;;;;;;;8.80;6.47;;;;;;;16.15;81.08;92786.41;4968857;28;20099;-49
2022/08/15 02:11:43;;;;;;;6.40;5.43;;;;;;;16.05;81.60;92783.69;4965817;28;20027;-46
2022/08/15 02:14:09;;;;;;;11.75;6.18;;;;;;;16.10;81.21;92793.78;4970241;28;20111;-44
2022/08/15 02:16:36;;;;;;;8.27;5.55;;;;;;;16.12;80.92;92790.38;4971858;28;20022;-42
2022/08/15 02:19:07;;;;;;;10.10;5.95;;;;;;;16.03;81.30;92791.19;4971859;28;20065;-44
2022/08/15 02:21:34;;;;;;;7.38;5.88;;;;;;;16.09;80.92;92792.31;4971814;28;20027;-45
2022/08/15 02:23:59;;;;;;;8.25;4.88;;;;;;;16.01;81.55;92794.59;4971811;28;20034;-44
2022/08/15 02:26:25;;;;;;;7.45;5.15;;;;;;;16.11;81.28;92786.16;4971449;28;20489;-45
2022/08/15 02:28:51;;;;;;;11.57;4.55;;;;;;;16.11;81.44;92783.38;4975381;28;20604;-45
2022/08/15 02:31:26;;;;;;;10.73;4.88;;;;;;;16.07;81.45;92791.47;4975659;28;20118;-42
2022/08/15 02:33:55;;;;;;;6.15;4.47;;;;;;;16.15;80.77;92789.94;4975813;28;20031;-43
2022/08/15 02:36:22;;;;;;;7.50;4.47;;;;;;;16.11;81.19;92784.09;4975401;28;20034;-45
2022/08/15 02:38:49;;;;;;;11.45;3.85;;;;;;;16.10;81.22;92785.41;4975397;28;20023;-43
2022/08/15 02:41:26;;;;;;;6.97;4.53;;;;;;;16.09;81.23;92789.53;4975222;28;20026;-44
2022/08/15 02:43:52;;;;;;;5.15;4.47;;;;;;;16.06;81.62;92787.94;4975654;28;20031;-43
2022/08/15 02:46:18;;;;;;;6.28;4.28;;;;;;;15.97;81.88;92780.41;4975486;28;20034;-43
2022/08/15 02:48:46;;;;;;;15.75;4.57;;;;;;;16.09;81.80;92792.31;4973946;28;20019;-43
2022/08/15 02:51:14;;;;;;;7.28;4.40;;;;;;;16.10;81.81;92798.59;4974932;28;20018;-44
2022/08/15 02:53:49;;;;;;;7.13;4.63;;;;;;;16.12;81.90;92793.16;4975405;28;20030;-44
2022/08/15 02:56:22;;;;;;;9.57;4.88;;;;;;;16.05;82.92;92797.63;4989987;28;20511;-43
2022/08/15 02:58:49;;;;;;;5.40;4.55;;;;;;;16.07;83.33;92803.31;4974950;28;20054;-44
2022/08/15 03:01:16;;;;;;;6.15;4.50;;;;;;;16.14;83.51;92799.59;4975314;28;20392;-44
2022/08/15 03:03:45;;;;;;;5.85;4.72;;;;;;;16.26;84.00;92803.16;4975241;28;20023;-45
2022/08/15 03:06:12;;;;;;;9.80;5.65;;;;;;;16.33;82.87;92807.06;4975012;28;20051;-43
2022/08/15 03:08:39;;;;;;;7.72;5.18;;;;;;;16.34;83.11;92806.44;4974814;28;20062;-44
2022/08/15 03:11:06;;;;;;;12.52;5.68;;;;;;;16.38;82.91;92808.75;4973873;28;20023;-45
2022/08/15 03:13:33;;;;;;;11.45;5.25;;;;;;;16.33;82.61;92809.84;4974689;28;20486;-44
2022/08/15 03:15:59;;;;;;;6.35;4.75;;;;;;;16.12;83.18;92799.47;4974669;28;20041;-44
2022/08/15 03:18:27;;;;;;;9.07;6.00;;;;;;;16.28;83.24;92822.03;4974992;28;20073;-43
2022/08/15 03:20:53;;;;;;;6.30;5.07;;;;;;;16.27;83.35;92823.38;4974647;28;20162;-42
2022/08/15 03:23:20;;;;;;;9.73;5.15;;;;;;;16.24;83.93;92819.72;4974544;28;20051;-43
2022/08/15 03:25:48;;;;;;;7.32;5.57;;;;;;;16.37;83.54;92829.59;4974784;28;20084;-43
2022/08/15 03:28:18;;;;;;;7.30;5.65;;;;;;;16.38;83.29;92833.81;4974528;28;20022;-49
2022/08/15 03:30:43;;;;;;;8.38;5.45;;;;;;;16.40;83.37;92831.88;4974638;28;20035;-46
2022/08/15 03:33:09;;;;;;;10.18;6.50;;;;;;;16.33;83.48;92818.91;4974621;28;20089;-42
2022/08/15 03:35:41;;;;;;;12.25;6.40;;;;;;;16.45;83.37;92832.88;4974317;28;20034;-42
2022/08/15 03:38:06;;;;;;;13.57;7.07;;;;;;;16.48;83.78;92842.81;4974379;28;20068;-41
2022/08/15 03:40:33;;;;;;;8.98;6.20;;;;;;;16.43;83.83;92847.41;4973889;28;20061;-41
2022/08/15 03:43:12;;;;;;;8.25;6.55;;;;;;;16.43;83.82;92847.41;4973516;28;20710;-43
2022/08/15 03:45:39;;;;;;;12.07;7.35;;;;;;;16.48;83.98;92851.88;4973858;28;20031;-42
2022/08/15 03:48:06;;;;;;;11.05;6.43;;;;;;;16.51;84.23;92861.13;4974050;28;20033;-44
2022/08/15 03:50:32;;;;;;;11.23;6.65;;;;;;;16.42;84.68;92859.13;4974120;28;20031;-44
2022/08/15 03:53:05;;;;;;;10.38;7.07;;;;;;;16.38;84.72;92854.06;4973910;28;20031;-43
2022/08/15 03:55:32;;;;;;;8.18;7.03;;;;;;;16.52;84.49;92862.59;4974084;28;20510;-43
2022/08/15 03:57:59;;;;;;;9.55;6.55;;;;;;;16.51;83.85;92859.09;4974152;28;20026;-44
2022/08/15 04:00:29;;;;;;;11.75;7.88;;;;;;;16.61;83.70;92875.72;4974301;28;20031;-44
2022/08/15 04:03:33;;;;;;;11.77;6.80;;;;;;;16.62;84.17;92874.38;4974025;28;20048;-44
2022/08/15 04:06:00;;;;;;;10.55;7.07;;;;;;;16.50;84.76;92874.34;4971222;28;20571;-43
2022/08/15 04:08:30;;;;;;;11.98;7.90;;;;;;;16.51;83.91;92866.72;4971443;28;20082;-44
2022/08/15 04:10:56;;;;;;;8.98;5.95;;;;;;;16.61;84.21;92870.16;4972338;28;20035;-43
2022/08/15 04:13:24;;;;;;;9.93;7.25;;;;;;;16.52;84.42;92873.75;4973613;28;20053;-42
2022/08/15 04:15:56;;;;;;;10.48;8.30;;;;;;;16.60;84.23;92866.63;4972366;28;20015;-42
2022/08/15 04:18:24;;;;;;;11.93;7.07;;;;;;;16.44;83.99;92862.78;4973378;28;20065;-43
2022/08/15 04:20:54;;;;;;;10.52;8.40;;;;;;;16.43;84.62;92861.34;4973516;28;20031;-43
2022/08/15 04:23:19;;;;;;;9.13;7.35;;;;;;;16.55;84.25;92873.28;4973254;28;20027;-44
2022/08/15 04:25:44;;;;;;;9.43;7.35;;;;;;;16.59;84.24;92870.00;4973394;28;20030;-44
2022/08/15 04:28:14;;;;;;;10.52;7.72;;;;;;;16.65;83.53;92871.09;4973346;28;20022;-45
2022/08/15 04:30:41;;;;;;;11.18;7.38;;;;;;;16.68;83.70;92869.19;4973639;28;20033;-42
2022/08/15 04:33:11;;;;;;;8.75;6.80;;;;;;;16.71;83.51;92861.66;4973585;28;20094;-44
2022/08/15 04:35:38;;;;;;;13.65;6.82;;;;;;;16.63;82.97;92857.03;4973253;28;20034;-44
2022/08/15 04:38:04;;;;;;;8.73;6.85;;;;;;;16.73;83.06;92864.56;4973600;28;20034;-45
2022/08/15 04:40:30;;;;;;;9.63;6.60;;;;;;;16.72;83.04;92849.19;4973123;28;20038;-45
2022/08/15 04:42:58;;;;;;;10.23;7.20;;;;;;;16.77;82.91;92857.19;4973233;28;20227;-48
2022/08/15 04:45:25;;;;;;;8.40;7.05;;;;;;;16.83;82.94;92854.78;4972657;28;20117;-43
2022/08/15 04:47:51;;;;;;;8.45;6.65;;;;;;;16.83;82.67;92845.69;4972876;28;20027;-44
2022/08/15 04:50:17;;;;;;;6.57;5.60;;;;;;;16.77;82.86;92853.69;4972612;28;20468;-44
2022/08/15 04:52:45;;;;;;;9.75;6.72;;;;;;;16.86;83.06;92853.56;4972756;28;20102;-43
2022/08/15 04:55:13;;;;;;;8.93;6.60;;;;;;;16.91;82.76;92860.13;4973335;28;20027;-45
2022/08/15 04:57:38;;;;;;;8.57;6.88;;;;;;;16.88;82.93;92855.75;4973202;28;20416;-44
2022/08/15 05:00:09;;;;;;;8.15;6.10;;;;;;;16.88;82.80;92850.91;4972844;28;20054;-45
2022/08/15 05:02:35;;;;;;;7.28;6.00;;;;;;;16.83;82.45;92862.44;4973230;28;20030;-43
2022/08/15 05:05:00;;;;;;;8.43;5.63;;;;;;;16.73;83.18;92861.78;4972948;28;20448;-46
2022/08/15 05:07:26;;;;;;;9.32;5.93;;;;;;;16.69;83.43;92865.06;4972723;28;20071;-43
2022/08/15 05:09:52;;;;;;;7.78;5.97;;;;;;;16.73;83.29;92868.09;4972863;28;20048;-43
2022/08/15 05:12:17;;;;;;;7.60;6.03;;;;;;;16.84;82.66;92875.75;4972546;28;20567;-45
2022/08/15 05:14:43;;;;;;;9.20;5.80;;;;;;;16.85;82.40;92868.84;4972165;28;20034;-43
2022/08/15 05:17:08;;;;;;;7.60;5.43;;;;;;;16.92;81.99;92881.09;4970940;28;20101;-44
2022/08/15 05:19:34;;;;;;;7.15;5.63;;;;;;;16.92;82.34;92883.88;4972385;28;20026;-45
2022/08/15 05:21:59;;;;;;;17.38;5.85;;;;;;;17.07;82.24;92883.41;4971664;28;20585;-44
2022/08/15 05:24:24;;;;;;;6.85;5.25;;;;;;;17.18;81.76;92886.22;4972458;28;20034;-44
2022/08/15 05:26:50;;;;;;;6.97;5.30;;;;;;;17.27;81.08;92887.44;4972439;28;20046;-44
2022/08/15 05:29:16;;;;;;;5.82;5.22;;;;;;;17.37;80.62;92882.44;4972442;28;20100;-44
2022/08/15 05:31:42;;;;;;;5.85;4.70;;;;;;;17.38;81.02;92881.13;4972042;28;20031;-45
2022/08/15 05:34:08;;;;;;;7.47;5.65;;;;;;;17.47;80.83;92885.13;4971946;28;20031;-46
2022/08/15 05:36:34;;;;;;;7.55;5.50;;;;;;;17.54;79.96;92884.19;4972161;28;20033;-47
2022/08/15 05:39:22;;;;;;;8.13;5.63;;;;;;;17.60;79.98;92887.34;4971989;28;20030;-44
2022/08/15 05:42:01;;;;;;;6.40;5.30;;;;;;;17.65;79.61;92886.94;4951389;28;20046;-46
2022/08/15 05:44:29;;;;;;;8.30;5.55;;;;;;;17.57;78.66;92889.28;4952136;28;20043;-43
2022/08/15 05:47:12;;;;;;;7.68;5.55;;;;;;;17.66;78.70;92885.63;4952767;28;20523;-43
2022/08/15 05:49:46;;;;;;;9.95;5.65;;;;;;;17.76;78.04;92885.50;4964188;28;20053;-43
2022/08/15 05:52:32;;;;;;;7.70;6.85;;;;;;;17.79;77.68;92882.22;4957901;28;20038;-42
2022/08/15 05:55:13;;;;;;;7.47;6.13;;;;;;;17.80;77.46;92883.66;4955449;28;20039;-43
2022/08/15 05:58:13;;;;;;;9.35;6.28;;;;;;;17.91;77.05;92896.16;4961176;28;20110;-42
2022/08/15 06:00:39;;;;;;;9.15;5.35;;;;;;;18.02;77.13;92890.53;4961466;28;20038;-44
2022/08/15 06:03:14;;;;;;;7.15;5.28;;;;;;;18.07;75.30;92895.03;4957838;28;20023;-43
2022/08/15 06:05:44;;;;;;;11.60;6.45;;;;;;;18.07;74.77;92881.03;4962234;28;20083;-45
2022/08/15 06:08:21;;;;;;;8.23;5.80;;;;;;;17.98;76.51;92881.19;4965786;28;20030;-43
2022/08/15 06:10:54;;;;;;;6.93;6.10;;;;;;;18.00;75.67;92875.72;4970716;28;20107;-47
2022/08/15 06:13:40;;;;;;;8.20;5.70;;;;;;;18.10;75.99;92885.41;4958372;28;20027;-43
2022/08/15 06:16:37;;;;;;;6.68;5.60;;;;;;;18.26;75.83;92884.88;4966983;28;20034;-44
2022/08/15 06:19:06;;;;;;;8.10;6.35;;;;;;;18.60;73.52;92878.44;4965637;28;20089;-44
2022/08/15 06:21:41;;;;;;;7.88;5.57;;;;;;;18.51;72.95;92877.28;4967211;28;20026;-42
2022/08/15 06:24:13;;;;;;;9.77;6.57;;;;;;;18.44;73.07;92883.09;4966696;28;20071;-42
2022/08/15 06:26:52;;;;;;;8.95;6.65;;;;;;;18.33;72.97;92879.00;4963667;28;20033;-43
2022/08/15 06:29:45;;;;;;;8.82;5.68;;;;;;;18.15;74.03;92884.28;4968596;28;20058;-42
2022/08/15 06:32:23;;;;;;;8.07;6.10;;;;;;;18.14;74.90;92884.91;4968490;28;20093;-42
2022/08/15 06:35:23;;;;;;;6.90;5.50;;;;;;;18.18;74.45;92885.16;4970035;28;20050;-44
2022/08/15 06:38:09;;;;;;;8.07;5.80;;;;;;;18.15;74.65;92881.50;4950295;29;20572;-45
2022/08/15 06:41:18;;;;;;;6.70;5.63;;;;;;;18.26;73.61;92882.78;4958890;28;20047;-44
2022/08/15 06:43:45;;;;;;;8.30;5.55;;;;;;;18.42;74.18;92877.41;4942326;28;20047;-46
2022/08/15 06:46:13;;;;;;;8.57;5.30;;;;;;;18.44;73.54;92874.72;4970485;28;20488;-43
2022/08/15 06:48:40;;;;;;;11.40;6.15;;;;;;;18.51;73.70;92882.13;4971306;28;20034;-44
2022/08/15 06:51:07;;;;;;;7.55;6.10;;;;;;;18.61;73.51;92880.63;4969692;28;20030;-43
2022/08/15 06:53:46;;;;;;;5.57;4.97;;;;;;;18.71;72.55;92888.84;4969771;28;20038;-42
2022/08/15 06:56:23;;;;;;;14.77;6.55;;;;;;;18.78;72.97;92893.41;4966705;28;20429;-44
2022/08/15 06:58:48;;;;;;;9.43;6.05;;;;;;;18.76;73.20;92898.91;4965365;28;20034;-45
2022/08/15 07:01:32;;;;;;;7.55;5.85;;;;;;;18.86;73.63;92900.19;4969652;28;20081;-43
2022/08/15 07:04:21;;;;;;;7.05;5.70;;;;;;;19.00;72.39;92896.69;4968640;28;20150;-45
2022/08/15 07:07:06;;;;;;;;;;;;;;;19.10;72.91;92895.16;4968461;28;20054;-47
2022/08/15 07:09:47;;;;;;;10.13;6.53;;;;;;;19.21;71.82;92902.06;4964094;28;19914;-42
2022/08/15 07:12:18;;;;;;;17.23;6.72;;;;;;;19.22;72.80;92903.50;4967382;28;20057;-43
2022/08/15 07:15:07;;;;;;;10.27;7.93;;;;;;;19.33;72.01;92905.47;4968255;28;20037;-44
2022/08/15 07:18:00;;;;;;;10.45;7.50;;;;;;;19.43;71.20;92909.56;4973364;28;20117;-43
2022/08/15 07:20:26;;;;;;;9.55;8.13;;;;;;;19.57;71.24;92904.00;4970506;28;20420;-45
2022/08/15 07:22:52;;;;;;;12.82;9.40;;;;;;;19.65;69.98;92902.34;4973394;28;20031;-45
2022/08/15 07:25:19;;;;;;;11.02;9.60;;;;;;;19.69;70.89;92899.00;4973494;28;20038;-44
2022/08/15 07:28:16;;;;;;;15.18;9.75;;;;;;;19.64;70.74;92911.38;4969043;28;20031;-44
2022/08/15 07:30:47;;;;;;;11.77;9.13;;;;;;;19.68;71.15;92908.78;4954721;28;20526;-44
2022/08/15 07:33:35;;;;;;;13.02;9.48;;;;;;;19.94;71.19;92901.72;4977339;28;20047;-44
2022/08/15 07:36:07;;;;;;;12.00;9.48;;;;;;;20.23;68.99;92907.41;4954384;28;20032;-44
2022/08/15 07:38:32;;;;;;;11.75;7.82;;;;;;;20.40;67.45;92909.66;4955162;28;20043;-43
2022/08/15 07:41:22;;;;;;;10.23;7.72;;;;;;;21.02;65.33;92911.22;4954682;28;20027;-45
2022/08/15 07:43:48;;;;;;;10.68;8.63;;;;;;;21.98;63.98;92897.34;4958280;28;20578;-44
2022/08/15 07:46:16;;;;;;;10.65;8.68;;;;;;;23.27;57.87;92906.91;4959878;28;20035;-46
2022/08/15 07:48:42;;;;;;;10.75;8.27;;;;;;;24.08;53.56;92901.47;4952887;28;20041;-48
2022/08/15 07:51:14;;;;;;;9.98;8.10;;;;;;;24.76;53.50;92905.94;4960563;28;20051;-44
2022/08/15 07:54:09;;;;;;;14.13;9.13;;;;;;;25.15;51.43;92907.88;4969506;28;20465;-45
2022/08/15 07:56:34;;;;;;;12.20;9.88;;;;;;;24.81;51.98;92901.88;4946021;28;20050;-44
2022/08/15 07:59:22;;;;;;;13.00;10.60;;;;;;;24.61;53.08;92918.09;4959172;28;20023;-45
2022/08/15 08:01:51;;;;;;;13.68;11.35;;;;;;;24.49;54.35;92912.78;4964634;28;20567;-45
2022/08/15 08:04:27;;;;;;;15.73;11.27;;;;;;;24.48;53.24;92905.69;4963113;28;20852;-44
2022/08/15 08:07:20;;;;;;;13.75;10.20;;;;;;;24.29;53.17;92923.38;4978849;28;20137;-44
2022/08/15 08:09:53;;;;;;;10.70;8.95;;;;;;;24.15;52.36;92920.03;4950790;29;20118;-45
2022/08/15 08:12:37;;;;;;;12.07;9.68;;;;;;;24.38;52.46;92924.38;4952972;28;20055;-45
2022/08/15 08:15:17;;;;;;;13.15;10.38;;;;;;;24.88;52.77;92917.66;4965385;28;20043;-47
2022/08/15 08:18:04;;;;;;;13.23;10.65;;;;;;;24.91;50.66;92921.22;4970368;28;20039;-44
2022/08/15 08:20:53;;;;;;;15.20;11.10;;;;;;;24.49;51.98;92917.72;4973247;28;20105;-46
2022/08/15 08:23:18;;;;;;;11.68;10.20;;;;;;;24.19;52.63;92913.84;4964645;28;20031;-44
2022/08/15 08:25:52;;;;;;;14.70;11.82;;;;;;;23.97;54.66;92911.63;4954057;28;20469;-44
2022/08/15 08:28:32;;;;;;;12.98;10.45;;;;;;;24.21;54.05;92905.44;4961363;28;20117;-44
2022/08/15 08:31:18;;;;;;;13.25;10.05;;;;;;;24.70;52.15;92908.53;4972749;28;20026;-44
2022/08/15 08:34:05;;;;;;;13.02;9.90;;;;;;;24.95;51.26;92895.97;4982007;28;20039;-44
2022/08/15 08:36:55;;;;;;;11.27;9.05;;;;;;;25.56;51.10;92893.66;4977158;28;20564;-45
2022/08/15 08:39:36;;;;;;;11.60;9.95;;;;;;;25.84;49.30;92897.28;4964237;28;20165;-44
2022/08/15 08:42:07;;;;;;;11.35;10.05;;;;;;;26.11;48.86;92895.97;4953592;28;20512;-44
2022/08/15 08:44:56;;;;;;;13.43;10.18;;;;;;;26.66;48.37;92901.69;4979857;28;20089;-44
2022/08/15 08:47:44;;;;;;;13.63;10.75;;;;;;;26.98;47.57;92896.16;4952381;28;20030;-45
2022/08/15 08:50:21;;;;;;;;;;;;;;;26.83;46.97;92902.84;4951763;28;20109;-45
2022/08/15 08:53:05;;;;;;;14.80;11.77;;;;;;;26.78;48.46;92902.03;4961357;28;19985;-44
2022/08/15 08:55:55;;;;;;;15.52;12.68;;;;;;;26.69;48.13;92905.28;4963644;28;20110;-44
2022/08/15 08:58:47;;;;;;;13.90;11.60;;;;;;;26.24;48.34;92900.56;4953991;28;20046;-44
2022/08/15 09:01:16;;;;;;;17.27;14.00;;;;;;;25.96;49.30;92894.09;4965823;28;20046;-44
2022/08/15 09:03:46;;;;;;;14.75;12.75;;;;;;;26.36;48.94;92903.72;4972794;28;20039;-44
2022/08/15 09:06:17;;;;;;;17.17;13.27;;;;;;;26.78;47.94;92902.03;4965234;28;20049;-46
2022/08/15 09:08:51;;;;;;;15.23;13.38;;;;;;;26.70;48.05;92910.31;4965532;28;20105;-43
2022/08/15 09:11:30;;;;;;;16.20;13.50;;;;;;;26.60;47.88;92906.47;4977897;28;20527;-44
2022/08/15 09:13:59;;;;;;;18.05;14.18;;;;;;;26.54;48.85;92903.47;4976603;28;20566;-46
2022/08/15 09:16:34;;;;;;;17.20;14.35;;;;;;;26.78;49.00;92898.47;4971358;28;20031;-44
2022/08/15 09:19:04;;;;;;;16.88;13.55;;;;;;;26.70;47.26;92910.31;4972081;28;20043;-44
2022/08/15 09:21:30;;;;;;;16.48;12.70;;;;;;;26.00;48.94;92914.75;4968178;28;20026;-45
2022/08/15 09:23:56;;;;;;;16.17;13.98;;;;;;;25.91;48.93;92906.69;4970731;28;20700;-44
2022/08/15 09:26:33;;;;;;;16.45;14.07;;;;;;;25.50;49.86;92907.59;4970193;28;20118;-44
2022/08/15 09:29:04;;;;;;;19.90;15.18;;;;;;;25.23;51.37;92911.69;4958756;28;20031;-44
2022/08/15 09:31:32;;;;;;;19.17;16.33;;;;;;;25.07;52.25;92914.03;4960976;28;20038;-46
2022/08/15 09:34:08;;;;;;;18.00;15.15;;;;;;;25.52;52.50;92914.03;4961466;28;20027;-44
2022/08/15 09:36:40;;;;;;;17.90;15.23;;;;;;;25.62;51.17;92904.44;4986844;28;20115;-46
2022/08/15 09:39:23;;;;;;;17.80;14.63;;;;;;;25.32;50.79;92901.34;4972050;28;20037;-46
2022/08/15 09:42:19;;;;;;;19.33;15.32;;;;;;;25.02;52.29;92906.06;4971526;28;20019;-45
2022/08/15 09:44:57;;;;;;;18.10;14.57;;;;;;;24.66;52.86;92905.59;4965030;28;20033;-44
2022/08/15 09:47:41;;;;;;;20.60;13.68;;;;;;;24.68;53.33;92900.72;4959722;28;20106;-43
2022/08/15 09:50:44;;;;;;;16.27;13.85;;;;;;;24.82;52.63;92897.66;4966456;28;20488;-46
2022/08/15 09:53:10;;;;;;;16.38;13.70;;;;;;;24.41;52.17;92901.22;4951707;29;20027;-45
2022/08/15 09:55:44;;;;;;;15.88;12.77;;;;;;;24.52;53.46;92899.44;4954078;28;20034;-51
2022/08/15 09:58:25;;;;;;;19.25;14.85;;;;;;;24.78;52.90;92903.19;4969692;28;20038;-45
2022/08/15 10:01:10;;;;;;;16.90;13.48;;;;;;;24.70;51.92;92900.78;4967393;28;20019;-45
2022/08/15 10:03:44;;;;;;;16.88;13.05;;;;;;;24.76;52.27;92900.28;4951043;29;20452;-47
2022/08/15 10:06:57;;;;;;;16.90;13.45;;;;;;;24.87;52.63;92904.16;4959691;28;20055;-49
2022/08/15 10:09:31;;;;;;;15.23;12.13;;;;;;;25.41;52.57;92897.41;4946789;28;20106;-44
2022/08/15 10:12:06;;;;;;;16.73;12.27;;;;;;;26.00;51.45;92894.22;4967841;28;20527;-47
2022/08/15 10:14:53;;;;;;;13.43;11.10;;;;;;;26.87;47.35;92883.84;4970900;28;20031;-47
2022/08/15 10:17:35;;;;;;;19.50;11.80;;;;;;;27.59;47.34;92884.81;4964618;28;20026;-46
2022/08/15 10:20:15;;;;;;;16.85;11.48;;;;;;;28.37;43.85;92885.75;4951840;28;20039;-50
2022/08/15 10:22:50;;;;;;;12.70;11.40;;;;;;;28.73;44.65;92885.00;4970577;28;20037;-44
2022/08/15 10:25:26;;;;;;;11.45;10.25;;;;;;;29.16;42.70;92884.34;4971337;28;20031;-46
2022/08/15 10:28:05;;;;;;;22.55;13.95;;;;;;;29.77;40.65;92883.88;4970609;28;20026;-45
2022/08/15 10:31:02;;;;;;;15.82;11.73;;;;;;;30.42;39.73;92879.72;4959336;28;20504;-44
2022/08/15 10:33:30;;;;;;;11.70;10.18;;;;;;;30.68;38.60;92882.13;4936286;28;20071;-47
2022/08/15 10:36:22;;;;;;;13.48;11.20;;;;;;;30.54;39.14;92867.72;4952638;28;20081;-46
2022/08/15 10:38:52;;;;;;;12.68;10.00;;;;;;;30.56;39.17;92862.75;4964419;28;20039;-45
2022/08/15 10:41:36;;;;;;;13.23;11.13;;;;;;;30.84;39.91;92858.78;4969691;28;20030;-44
2022/08/15 10:44:30;;;;;;;12.00;10.00;;;;;;;31.26;38.31;92868.44;4970823;28;20045;-44
2022/08/15 10:47:07;;;;;;;14.73;9.50;;;;;;;31.73;37.04;92863.06;4971415;28;20031;-46
2022/08/15 10:49:41;;;;;;;10.00;9.00;;;;;;;31.94;35.63;92862.50;4974307;28;20038;-46
2022/08/15 10:52:52;;;;;;;14.43;9.25;;;;;;;32.48;35.70;92867.75;4974365;28;20078;-46
2022/08/15 10:55:30;;;;;;;12.23;9.00;;;;;;;32.80;36.06;92861.38;4959422;28;20077;-47
2022/08/15 10:58:00;;;;;;;12.90;10.95;;;;;;;32.86;32.72;92861.38;4963126;28;20496;-46
2022/08/15 11:00:53;;;;;;;14.45;10.00;;;;;;;33.24;33.79;92858.59;4973911;28;20492;-47
2022/08/15 11:03:27;;;;;;;12.65;10.23;;;;;;;33.28;34.92;92863.59;4958569;28;20042;-46
2022/08/15 11:05:58;;;;;;;10.10;9.10;;;;;;;33.67;32.94;92861.44;4958469;28;20046;-46
2022/08/15 11:08:24;;;;;;;15.60;13.98;;;;;;;32.77;32.59;92852.06;4973869;28;20427;-46
2022/08/15 11:10:50;;;;;;;13.38;11.98;;;;;;;31.55;35.19;92854.38;4972060;28;20061;-49
2022/08/15 11:13:22;;;;;;;16.65;14.85;;;;;;;30.59;35.93;92860.66;4971032;28;20054;-50
2022/08/15 11:15:54;;;;;;;13.45;12.02;;;;;;;30.05;39.50;92871.41;4970849;28;20039;-48
2022/08/15 11:18:29;;;;;;;13.93;11.50;;;;;;;29.15;41.91;92866.53;4969594;28;20038;-49
2022/08/15 11:21:02;;;;;;;13.50;11.25;;;;;;;28.62;43.40;92861.38;4972253;28;20039;-46
2022/08/15 11:23:39;;;;;;;17.75;14.38;;;;;;;28.28;43.70;92855.06;4973835;28;20084;-49
2022/08/15 11:26:08;;;;;;;14.80;11.90;;;;;;;28.25;44.70;92853.56;4971440;28;20027;-45
2022/08/15 11:28:34;;;;;;;14.40;11.40;;;;;;;27.98;45.16;92848.78;4964380;28;20559;-47
2022/08/15 11:31:05;;;;;;;13.45;12.02;;;;;;;28.32;45.23;92844.50;4961496;28;20058;-46
2022/08/15 11:33:40;;;;;;;19.23;13.32;;;;;;;28.91;42.67;92839.88;4960992;28;20027;-49
2022/08/15 11:36:12;;;;;;;11.23;10.05;;;;;;;29.21;42.44;92848.91;4955281;28;20035;-47
2022/08/15 11:38:42;;;;;;;11.75;10.45;;;;;;;29.51;40.62;92837.97;4955006;28;20079;-46
2022/08/15 11:41:08;;;;;;;11.55;10.35;;;;;;;29.93;40.36;92846.38;4953921;28;20027;-46
2022/08/15 11:43:34;;;;;;;12.15;10.90;;;;;;;30.30;39.67;92838.97;4959049;28;20034;-45
2022/08/15 11:46:00;;;;;;;10.50;8.68;;;;;;;30.41;37.87;92829.84;4970038;28;20034;-47
2022/08/15 11:48:31;;;;;;;20.58;15.90;;;;;;;30.43;37.73;92829.16;4972412;28;20038;-48
2022/08/15 11:51:01;;;;;;;10.07;9.07;;;;;;;30.32;38.79;92834.03;4972517;28;20030;-44
2022/08/15 11:53:29;;;;;;;18.48;13.50;;;;;;;30.52;38.55;92834.25;4972688;28;20039;-51
2022/08/15 11:55:54;;;;;;;17.38;12.10;;;;;;;30.49;36.43;92834.94;4972717;28;20030;-46